Strawberry Valley, California
Current Conditions -  °F | °C
As of 1:40 PM on Thursday 18 Dec 2014 (Local Time) from KGOO Reporting Station
Clear Clear  
Wind Chill: 46°   Ceiling: Unl
Heat Index: 48°   Visibility: 10mi
Dew Point: 37°   Wind: 5mph
Humidity: 66%   Direction: 180°S
Pressure: 30.15"   Gusts: NA
Location:  39.56°N, 121.11°W
Report Text: KGOO 182140Z AUTO 18004KT 10SM CLR 09/03 A3015 RMK AO1
Loading
Personal Weather Stations






























Interactive Weather Map New forecast layout! Learn more

10-Day Weather Forecast

Advertisements
Track Severe Weather on mobile